createdAt,value
2018-09-01T00:00:09.850Z,51.05
2018-09-01T00:01:09.858Z,51.07
2018-09-01T00:02:09.848Z,51.47
2018-09-01T00:03:09.821Z,50.87
2018-09-01T00:04:09.813Z,51.57
2018-09-01T00:05:09.804Z,51.57
2018-09-01T00:06:09.805Z,51.67
2018-09-01T00:07:09.776Z,51.67
2018-09-01T00:08:09.761Z,51.47
2018-09-01T00:09:09.753Z,51.47
2018-09-01T00:10:09.741Z,51.07
2018-09-01T00:11:09.794Z,51.27
2018-09-01T00:12:09.725Z,51.67
2018-09-01T00:13:09.707Z,51.37
2018-09-01T00:14:09.698Z,51.57
2018-09-01T00:15:09.690Z,51.47
2018-09-01T00:16:09.681Z,51.47
2018-09-01T00:17:09.672Z,51.07
2018-09-01T00:18:09.658Z,51.27
2018-09-01T00:19:09.641Z,51.67
2018-09-01T00:20:09.629Z,51.47
2018-09-01T00:21:09.620Z,51.45
2018-09-01T00:22:09.634Z,51.47
2018-09-01T00:23:09.599Z,51.67
2018-09-01T00:24:09.591Z,51.57
2018-09-01T00:25:09.597Z,51.47
2018-09-01T00:26:09.568Z,51.57
2018-09-01T00:27:09.571Z,51.57
2018-09-01T00:28:09.541Z,51.67
2018-09-01T00:29:09.538Z,51.57
2018-09-01T00:30:09.525Z,51.67
2018-09-01T00:31:09.512Z,51.67
2018-09-01T00:32:09.513Z,51.47
2018-09-01T00:33:09.488Z,51.67
2018-09-01T00:34:09.476Z,51.57
2018-09-01T00:35:09.468Z,51.47
2018-09-01T00:36:09.459Z,51.57
2018-09-01T00:37:09.474Z,51.57
2018-09-01T00:38:09.436Z,51.57
2018-09-01T00:39:09.421Z,51.67
2018-09-01T00:40:09.408Z,51.87
2018-09-01T00:41:09.398Z,51.67
2018-09-01T00:42:09.391Z,51.67
2018-09-01T00:43:09.381Z,51.87
2018-09-01T00:44:09.372Z,51.65
2018-09-01T00:45:09.354Z,51.67
2018-09-01T00:46:09.344Z,51.57
2018-09-01T00:47:09.337Z,51.84
2018-09-01T00:48:09.344Z,51.67
2018-09-01T00:49:09.316Z,51.47
2018-09-01T00:50:09.303Z,51.47
2018-09-01T00:51:09.292Z,50.98
2018-09-01T00:52:09.275Z,51.67
2018-09-01T00:53:09.284Z,51.27
2018-09-01T00:54:09.260Z,51.07
2018-09-01T00:55:09.248Z,51.57
2018-09-01T00:56:09.238Z,51.07
2018-09-01T00:57:09.228Z,51.47
2018-09-01T00:58:09.253Z,51.27
2018-09-01T00:59:09.203Z,51.07
2018-09-01T01:00:09.186Z,51.47
2018-09-01T01:01:09.182Z,51.57
2018-09-01T01:02:09.169Z,51.87
2018-09-01T01:03:09.156Z,51.67
2018-09-01T01:04:09.145Z,51.67
2018-09-01T01:05:09.131Z,51.67
2018-09-01T01:06:09.125Z,51.77
2018-09-01T01:07:09.115Z,51.67
2018-09-01T01:08:09.130Z,51.67
2018-09-01T01:09:09.094Z,51.67
2018-09-01T01:10:09.081Z,51.67
2018-09-01T01:11:09.075Z,51.67
2018-09-01T01:12:09.054Z,51.87
2018-09-01T01:13:09.043Z,51.37
2018-09-01T01:14:09.036Z,51.77
2018-09-01T01:15:09.026Z,51.37
2018-09-01T01:16:09.018Z,51.67
2018-09-01T01:17:09.003Z,51.67
2018-09-01T01:18:08.991Z,51.57
2018-09-01T01:19:09.000Z,51.67
2018-09-01T01:20:08.972Z,51.67
2018-09-01T01:21:08.961Z,51.57
2018-09-01T01:22:08.947Z,51.67
2018-09-01T01:23:08.935Z,51.67
2018-09-01T01:24:08.939Z,51.67
2018-09-01T01:25:08.911Z,51.67
2018-09-01T01:26:08.901Z,51.67
2018-09-01T01:27:08.893Z,51.57
2018-09-01T01:28:08.884Z,51.67
2018-09-01T01:29:08.890Z,51.67
2018-09-01T01:30:08.860Z,51.57
2018-09-01T01:31:08.846Z,51.67
2018-09-01T01:32:08.837Z,51.67
2018-09-01T01:33:08.845Z,51.47
2018-09-01T01:34:08.855Z,51.57
2018-09-01T01:35:08.801Z,51.77
2018-09-01T01:36:08.795Z,51.77
2018-09-01T01:37:08.777Z,51.77
2018-09-01T01:38:08.768Z,51.57
2018-09-01T01:39:08.786Z,51.67
2018-09-01T01:40:08.752Z,51.77
2018-09-01T01:41:08.740Z,51.67
2018-09-01T01:42:08.728Z,50.85
2018-09-01T01:43:08.715Z,51.47
2018-09-01T01:44:08.700Z,51.87
2018-09-01T01:45:08.691Z,51.47
2018-09-01T01:46:08.681Z,51.87
2018-09-01T01:47:08.671Z,51.47
2018-09-01T01:48:08.663Z,51.47
2018-09-01T01:49:08.644Z,51.77
2018-09-01T01:50:08.662Z,51.77
2018-09-01T01:51:08.628Z,51.87
2018-09-01T01:52:08.621Z,51.57
2018-09-01T01:53:08.609Z,51.77
2018-09-01T01:54:08.595Z,51.87
2018-09-01T01:55:08.581Z,51.57
2018-09-01T01:56:08.571Z,51.57
2018-09-01T01:57:08.557Z,51.47
2018-09-01T01:58:08.550Z,51.77
2018-09-01T01:59:08.539Z,51.67
2018-09-01T02:00:08.531Z,51.77
2018-09-01T02:01:08.550Z,51.77
2018-09-01T02:02:08.506Z,51.67
2018-09-01T02:03:08.493Z,51.67
2018-09-01T02:04:08.481Z,51.87
2018-09-01T02:05:08.474Z,51.57
2018-09-01T02:06:08.467Z,51.97
2018-09-01T02:07:08.462Z,51.67
2018-09-01T02:08:08.438Z,51.47
2018-09-01T02:09:08.424Z,51.57
2018-09-01T02:10:08.415Z,51.57
2018-09-01T02:11:08.406Z,51.57
2018-09-01T02:12:08.421Z,51.47
2018-09-01T02:13:08.386Z,51.37
2018-09-01T02:14:08.373Z,51.67
2018-09-01T02:15:08.375Z,51.67
2018-09-01T02:16:08.371Z,51.47
2018-09-01T02:17:08.336Z,51.47
2018-09-01T02:18:08.328Z,51.97
2018-09-01T02:19:08.318Z,51.87
2018-09-01T02:20:08.310Z,51.67
2018-09-01T02:21:08.292Z,51.47
2018-09-01T02:22:08.290Z,51.67
2018-09-01T02:23:08.275Z,51.47
2018-09-01T02:24:08.266Z,51.77
2018-09-01T02:25:08.256Z,51.77
2018-09-01T02:26:08.243Z,51.37
2018-09-01T02:27:08.252Z,51.67
2018-09-01T02:28:08.217Z,51.57
2018-09-01T02:29:08.204Z,51.37
2018-09-01T02:30:08.203Z,51.67
2018-09-01T02:31:08.184Z,51.57
2018-09-01T02:32:08.177Z,51.57
2018-09-01T02:33:08.170Z,51.27
2018-09-01T02:34:08.154Z,51.67
2018-09-01T02:35:08.139Z,51.47
2018-09-01T02:36:08.128Z,51.47
2018-09-01T02:37:08.126Z,51.77
2018-09-01T02:38:08.130Z,51.67
2018-09-01T02:39:08.095Z,51.77
2018-09-01T02:40:08.082Z,51.77
2018-09-01T02:41:08.074Z,51.37
2018-09-01T02:42:08.065Z,51.47
2018-09-01T02:43:08.080Z,51.87
2018-09-01T02:44:08.048Z,51.47
2018-09-01T02:45:08.036Z,51.47
2018-09-01T02:46:08.022Z,51.47
2018-09-01T02:47:08.009Z,51.37
2018-09-01T02:48:07.997Z,51.77
2018-09-01T02:49:07.989Z,51.87
2018-09-01T02:50:07.978Z,51.87
2018-09-01T02:51:07.966Z,51.27
2018-09-01T02:52:07.958Z,51.87
2018-09-01T02:53:07.943Z,51.37
2018-09-01T02:54:07.957Z,51.67
2018-09-01T02:55:07.924Z,51.47
2018-09-01T02:56:07.917Z,51.47
2018-09-01T02:57:07.909Z,51.89
2018-09-01T02:58:07.891Z,51.87
2018-09-01T02:59:07.877Z,51.87
2018-09-01T03:00:07.865Z,51.67
2018-09-01T03:01:07.851Z,51.77
2018-09-01T03:02:07.842Z,51.37
2018-09-01T03:03:07.837Z,51.37
2018-09-01T03:04:07.825Z,51.77
2018-09-01T03:05:07.831Z,51.59
2018-09-01T03:06:07.830Z,51.67
2018-09-01T03:07:07.789Z,51.47
2018-09-01T03:08:07.774Z,51.57
2018-09-01T03:09:07.776Z,51.57
2018-09-01T03:10:07.781Z,51.70
2018-09-01T03:11:07.746Z,51.57
2018-09-01T03:12:07.730Z,51.77
2018-09-01T03:13:07.724Z,51.37
2018-09-01T03:14:07.712Z,51.40
2018-09-01T03:15:07.706Z,51.87
2018-09-01T03:16:07.694Z,51.67
2018-09-01T03:17:07.681Z,51.27
2018-09-01T03:18:07.670Z,51.37
2018-09-01T03:19:07.656Z,51.47
2018-09-01T03:20:07.641Z,51.37
2018-09-01T03:21:07.659Z,51.87
2018-09-01T03:22:07.629Z,51.47
2018-09-01T03:23:07.613Z,51.37
2018-09-01T03:24:07.603Z,51.59
2018-09-01T03:25:07.644Z,51.77
2018-09-01T03:26:07.597Z,51.57
2018-09-01T03:27:07.570Z,51.27
2018-09-01T03:28:07.560Z,51.87
2018-09-01T03:29:07.552Z,51.37
2018-09-01T03:30:07.538Z,51.97
2018-09-01T03:31:07.522Z,51.37
2018-09-01T03:32:07.530Z,51.47
2018-09-01T03:33:07.498Z,51.47
2018-09-01T03:34:07.489Z,51.40
2018-09-01T03:35:07.480Z,51.77
2018-09-01T03:36:07.475Z,51.47
2018-09-01T03:37:07.488Z,51.77
2018-09-01T03:38:07.448Z,51.67
2018-09-01T03:39:07.437Z,51.67
2018-09-01T03:40:07.420Z,51.67
2018-09-01T03:41:07.419Z,51.37
2018-09-01T03:42:07.404Z,51.50
2018-09-01T03:43:07.391Z,51.67
2018-09-01T03:44:07.378Z,51.77
2018-09-01T03:45:07.365Z,51.77
2018-09-01T03:46:07.356Z,51.77
2018-09-01T03:47:07.348Z,51.50
2018-09-01T03:48:07.362Z,51.57
2018-09-01T03:49:07.355Z,51.67
2018-09-01T03:50:07.314Z,51.47
2018-09-01T03:51:07.301Z,51.67
2018-09-01T03:52:07.287Z,51.47
2018-09-01T03:53:07.288Z,51.67
2018-09-01T03:54:07.269Z,51.47
2018-09-01T03:55:07.259Z,51.77
2018-09-01T03:56:07.250Z,51.77
2018-09-01T03:57:07.240Z,51.47
2018-09-01T03:58:07.223Z,51.67
2018-09-01T03:59:07.232Z,51.77
2018-09-01T04:00:07.210Z,51.57
2018-09-01T04:01:07.194Z,51.57
2018-09-01T04:02:07.184Z,51.67
2018-09-01T04:03:07.170Z,51.87
2018-09-01T04:04:07.179Z,51.87
2018-09-01T04:05:07.150Z,51.87
2018-09-01T04:06:07.139Z,51.57
2018-09-01T04:07:07.127Z,51.67
2018-09-01T04:08:07.114Z,51.67
2018-09-01T04:09:07.100Z,51.07
2018-09-01T04:10:07.093Z,51.57
2018-09-01T04:11:07.082Z,51.27
2018-09-01T04:12:07.094Z,51.77
2018-09-01T04:13:07.055Z,51.67
2018-09-01T04:14:07.052Z,51.89
2018-09-01T04:15:07.055Z,51.50
2018-09-01T04:16:07.029Z,51.40
2018-09-01T04:17:07.019Z,51.27
2018-09-01T04:18:07.007Z,51.47
2018-09-01T04:19:07.009Z,51.47
2018-09-01T04:20:07.018Z,51.57
2018-09-01T04:21:06.968Z,51.47
2018-09-01T04:22:06.963Z,51.87
2018-09-01T04:23:06.954Z,51.50
2018-09-01T04:24:06.940Z,51.47
2018-09-01T04:25:06.950Z,51.70
2018-09-01T04:26:06.916Z,51.67
2018-09-01T04:27:06.903Z,51.59
2018-09-01T04:28:06.890Z,51.27
2018-09-01T04:29:06.885Z,51.27
2018-09-01T04:30:06.890Z,51.57
2018-09-01T04:31:06.861Z,51.87
2018-09-01T04:32:06.927Z,51.67
2018-09-01T04:33:06.834Z,51.87
2018-09-01T04:34:06.826Z,51.70
2018-09-01T04:35:06.858Z,51.47
2018-09-01T04:36:06.807Z,51.67
2018-09-01T04:37:06.798Z,51.47
2018-09-01T04:38:06.783Z,51.47
2018-09-01T04:39:06.770Z,51.47
2018-09-01T04:40:06.759Z,51.47
2018-09-01T04:41:06.746Z,51.47
2018-09-01T04:42:06.737Z,51.47
2018-09-01T04:43:06.729Z,51.67
2018-09-01T04:44:06.721Z,51.07
2018-09-01T04:45:06.700Z,51.17
2018-09-01T04:46:06.718Z,51.47
2018-09-01T04:47:06.749Z,51.47
2018-09-01T04:48:06.674Z,50.98
2018-09-01T04:49:06.665Z,51.47
2018-09-01T04:50:06.651Z,51.10
2018-09-01T04:51:06.637Z,50.98
2018-09-01T04:52:06.629Z,51.17
2018-09-01T04:53:06.614Z,51.27
2018-09-01T04:54:06.606Z,50.98
2018-09-01T04:55:06.596Z,50.87
2018-09-01T04:56:06.588Z,51.17
2018-09-01T04:57:06.594Z,51.27
2018-09-01T04:58:06.564Z,51.20
2018-09-01T04:59:06.591Z,51.47
2018-09-01T05:00:06.536Z,51.07
2018-09-01T05:01:06.572Z,51.27
2018-09-01T05:02:06.549Z,50.98
2018-09-01T05:03:06.507Z,51.77
2018-09-01T05:04:06.491Z,51.27
2018-09-01T05:05:06.485Z,51.27
2018-09-01T05:06:06.472Z,51.29
2018-09-01T05:07:06.470Z,51.17
2018-09-01T05:08:06.472Z,50.98
2018-09-01T05:09:06.442Z,51.27
2018-09-01T05:10:06.430Z,51.00
2018-09-01T05:11:06.417Z,51.40
2018-09-01T05:12:06.405Z,51.20
2018-09-01T05:13:06.410Z,51.37
2018-09-01T05:14:06.385Z,51.07
2018-09-01T05:15:06.375Z,51.67
2018-09-01T05:16:06.366Z,51.47
2018-09-01T05:17:06.348Z,51.67
2018-09-01T05:18:06.384Z,50.87
2018-09-01T05:19:06.332Z,51.77
2018-09-01T05:20:06.321Z,51.47
2018-09-01T05:21:06.311Z,51.37
2018-09-01T05:22:06.297Z,51.17
2018-09-01T05:23:06.288Z,51.17
2018-09-01T05:24:06.336Z,51.07
2018-09-01T05:25:06.259Z,51.27
2018-09-01T05:26:06.251Z,51.17
2018-09-01T05:27:06.244Z,50.98
2018-09-01T05:28:06.234Z,50.98
2018-09-01T05:29:06.244Z,51.17
2018-09-01T05:30:06.209Z,51.40
2018-09-01T05:31:06.206Z,51.17
2018-09-01T05:32:06.183Z,50.98
2018-09-01T05:33:06.177Z,51.27
2018-09-01T05:34:06.194Z,50.87
2018-09-01T05:35:06.151Z,51.07
2018-09-01T05:36:06.141Z,51.47
2018-09-01T05:37:06.127Z,51.67
2018-09-01T05:38:06.117Z,51.10
2018-09-01T05:39:06.109Z,51.50
2018-09-01T05:40:06.104Z,51.10
2018-09-01T05:41:06.091Z,51.50
2018-09-01T05:42:06.088Z,51.29
2018-09-01T05:43:06.064Z,50.98
2018-09-01T05:44:06.057Z,51.17
2018-09-01T05:45:06.068Z,50.98
2018-09-01T05:46:06.033Z,50.98
2018-09-01T05:47:06.023Z,50.90
2018-09-01T05:48:06.015Z,51.17
2018-09-01T05:49:05.997Z,51.40
2018-09-01T05:50:05.989Z,51.47
2018-09-01T05:51:05.983Z,51.00
2018-09-01T05:52:05.971Z,50.87
2018-09-01T05:53:05.960Z,51.27
2018-09-01T05:54:05.948Z,51.27
2018-09-01T05:55:05.934Z,51.27
2018-09-01T05:56:05.945Z,51.17
2018-09-01T05:57:05.914Z,51.17
2018-09-01T05:58:05.903Z,51.00
2018-09-01T05:59:05.893Z,51.29
2018-09-01T06:00:05.884Z,50.98
2018-09-01T06:01:05.886Z,51.00
2018-09-01T06:02:05.865Z,50.98
2018-09-01T06:03:05.849Z,50.98
2018-09-01T06:04:05.833Z,50.90
2018-09-01T06:05:05.837Z,50.87
2018-09-01T06:06:05.945Z,51.27
2018-09-01T06:07:05.807Z,51.20
2018-09-01T06:08:05.790Z,51.27
2018-09-01T06:09:05.779Z,51.17
2018-09-01T06:10:05.771Z,51.27
2018-09-01T06:11:05.769Z,51.29
2018-09-01T06:12:05.787Z,51.77
2018-09-01T06:13:05.743Z,50.90
2018-09-01T06:14:05.730Z,51.00
2018-09-01T06:15:05.716Z,51.37
2018-09-01T06:16:05.704Z,50.98
2018-09-01T06:17:05.692Z,51.27
2018-09-01T06:18:05.690Z,51.27
2018-09-01T06:19:05.698Z,51.37
2018-09-01T06:20:05.667Z,51.29
2018-09-01T06:21:05.651Z,51.00
2018-09-01T06:22:05.643Z,51.20
2018-09-01T06:23:05.650Z,50.90
2018-09-01T06:24:05.623Z,50.98
2018-09-01T06:25:05.613Z,51.07
2018-09-01T06:26:05.602Z,51.37
2018-09-01T06:27:05.596Z,51.27
2018-09-01T06:28:05.574Z,50.87
2018-09-01T06:29:05.567Z,50.98
2018-09-01T06:30:05.610Z,51.27
2018-09-01T06:31:05.546Z,51.27
2018-09-01T06:32:05.538Z,51.27
2018-09-01T06:33:05.527Z,50.87
2018-09-01T06:34:05.534Z,51.07
2018-09-01T06:35:05.639Z,51.37
2018-09-01T06:36:05.496Z,51.17
2018-09-01T06:37:05.483Z,51.27
2018-09-01T06:38:05.472Z,51.27
2018-09-01T06:39:05.474Z,51.07
2018-09-01T06:40:05.443Z,51.47
2018-09-01T06:41:05.432Z,51.27
2018-09-01T06:42:05.425Z,51.20
2018-09-01T06:43:05.519Z,51.40
2018-09-01T06:44:05.435Z,50.87
2018-09-01T06:45:05.394Z,50.98
2018-09-01T06:46:05.382Z,51.27
2018-09-01T06:47:05.370Z,50.50
2018-09-01T06:48:05.358Z,51.29
2018-09-01T06:49:05.347Z,51.29
2018-09-01T06:50:05.339Z,51.29
2018-09-01T06:51:05.362Z,51.10
2018-09-01T06:52:05.321Z,50.48
2018-09-01T06:53:05.302Z,50.38
2018-09-01T06:54:05.294Z,50.40
2018-09-01T06:55:05.311Z,50.87
2018-09-01T06:56:05.279Z,50.68
2018-09-01T06:57:05.266Z,50.48
2018-09-01T06:58:05.251Z,50.70
2018-09-01T06:59:05.239Z,50.70
2018-09-01T07:00:05.229Z,50.60
2018-09-01T07:01:05.218Z,50.40
2018-09-01T07:02:05.209Z,50.10
2018-09-01T07:03:05.199Z,50.48
2018-09-01T07:04:05.192Z,50.27
2018-09-01T07:05:05.181Z,49.88
2018-09-01T07:06:05.184Z,49.90
2018-09-01T07:07:05.153Z,50.27
2018-09-01T07:08:05.139Z,49.78
2018-09-01T07:09:05.138Z,50.08
2018-09-01T07:10:05.148Z,50.10
2018-09-01T07:11:05.134Z,49.88
2018-09-01T07:12:05.096Z,50.08
2018-09-01T07:13:05.085Z,49.88
2018-09-01T07:14:05.076Z,49.88
2018-09-01T07:15:05.067Z,49.90
2018-09-01T07:16:05.059Z,49.90
2018-09-01T07:17:05.050Z,49.98
2018-09-01T07:18:05.034Z,49.80
2018-09-01T07:19:05.037Z,49.90
2018-09-01T07:20:05.008Z,49.98
2018-09-01T07:21:04.996Z,49.88
2018-09-01T07:22:05.016Z,49.70
2018-09-01T07:23:04.996Z,49.88
